sensor_id;sensor_type;location;lat;lon;timestamp;P1;durP1;ratioP1;P2;durP2;ratioP2
61960;SDS011;47923;42.506;24.192;2023-04-20T00:01:46;18.52;;;12.13;;
61960;SDS011;47923;42.506;24.192;2023-04-20T00:04:12;20.38;;;15.73;;
61960;SDS011;47923;42.506;24.192;2023-04-20T00:06:39;17.75;;;14.45;;
61960;SDS011;47923;42.506;24.192;2023-04-20T00:09:06;19.15;;;12.00;;
61960;SDS011;47923;42.506;24.192;2023-04-20T00:11:32;21.85;;;15.35;;
61960;SDS011;47923;42.506;24.192;2023-04-20T00:13:58;17.75;;;13.77;;
61960;SDS011;47923;42.506;24.192;2023-04-20T00:16:23;16.55;;;11.63;;
61960;SDS011;47923;42.506;24.192;2023-04-20T00:18:49;19.05;;;13.23;;
61960;SDS011;47923;42.506;24.192;2023-04-20T00:21:14;21.10;;;14.90;;
61960;SDS011;47923;42.506;24.192;2023-04-20T00:23:40;20.27;;;15.05;;
61960;SDS011;47923;42.506;24.192;2023-04-20T00:26:06;19.80;;;14.60;;
61960;SDS011;47923;42.506;24.192;2023-04-20T00:28:32;21.00;;;15.60;;
61960;SDS011;47923;42.506;24.192;2023-04-20T00:30:57;19.85;;;14.18;;
61960;SDS011;47923;42.506;24.192;2023-04-20T00:33:23;18.42;;;13.65;;
61960;SDS011;47923;42.506;24.192;2023-04-20T00:35:48;17.10;;;12.90;;
61960;SDS011;47923;42.506;24.192;2023-04-20T00:38:14;17.75;;;12.77;;
61960;SDS011;47923;42.506;24.192;2023-04-20T00:40:41;16.90;;;12.00;;
61960;SDS011;47923;42.506;24.192;2023-04-20T00:43:11;15.88;;;12.55;;
61960;SDS011;47923;42.506;24.192;2023-04-20T00:45:37;16.83;;;12.57;;
61960;SDS011;47923;42.506;24.192;2023-04-20T00:48:03;17.15;;;12.32;;
61960;SDS011;47923;42.506;24.192;2023-04-20T00:50:29;14.57;;;10.85;;
61960;SDS011;47923;42.506;24.192;2023-04-20T00:52:55;14.80;;;10.95;;
61960;SDS011;47923;42.506;24.192;2023-04-20T00:55:21;14.63;;;10.40;;
61960;SDS011;47923;42.506;24.192;2023-04-20T00:57:47;15.00;;;10.18;;
61960;SDS011;47923;42.506;24.192;2023-04-20T01:00:13;15.82;;;11.15;;
61960;SDS011;47923;42.506;24.192;2023-04-20T01:02:39;16.55;;;11.30;;
61960;SDS011;47923;42.506;24.192;2023-04-20T01:05:05;17.48;;;11.00;;
61960;SDS011;47923;42.506;24.192;2023-04-20T01:07:31;13.60;;;10.15;;
61960;SDS011;47923;42.506;24.192;2023-04-20T01:09:56;16.55;;;11.60;;
61960;SDS011;47923;42.506;24.192;2023-04-20T01:12:22;17.40;;;11.30;;
61960;SDS011;47923;42.506;24.192;2023-04-20T01:14:47;17.48;;;10.68;;
61960;SDS011;47923;42.506;24.192;2023-04-20T01:17:13;15.77;;;11.10;;
61960;SDS011;47923;42.506;24.192;2023-04-20T01:19:39;16.10;;;11.85;;
61960;SDS011;47923;42.506;24.192;2023-04-20T01:22:05;14.65;;;11.13;;
61960;SDS011;47923;42.506;24.192;2023-04-20T01:24:32;18.13;;;12.00;;
61960;SDS011;47923;42.506;24.192;2023-04-20T01:26:58;15.43;;;11.20;;
61960;SDS011;47923;42.506;24.192;2023-04-20T01:29:25;17.17;;;12.63;;
61960;SDS011;47923;42.506;24.192;2023-04-20T01:31:50;15.85;;;12.38;;
61960;SDS011;47923;42.506;24.192;2023-04-20T01:34:16;16.30;;;12.00;;
61960;SDS011;47923;42.506;24.192;2023-04-20T01:36:42;15.57;;;11.63;;
61960;SDS011;47923;42.506;24.192;2023-04-20T01:39:09;15.32;;;11.43;;
61960;SDS011;47923;42.506;24.192;2023-04-20T01:41:35;21.38;;;12.35;;
61960;SDS011;47923;42.506;24.192;2023-04-20T01:44:00;17.63;;;11.60;;
61960;SDS011;47923;42.506;24.192;2023-04-20T01:46:26;15.55;;;12.18;;
61960;SDS011;47923;42.506;24.192;2023-04-20T01:48:51;18.02;;;12.85;;
61960;SDS011;47923;42.506;24.192;2023-04-20T01:51:17;19.55;;;12.90;;
61960;SDS011;47923;42.506;24.192;2023-04-20T01:53:42;21.13;;;15.18;;
61960;SDS011;47923;42.506;24.192;2023-04-20T01:56:08;18.65;;;13.32;;
61960;SDS011;47923;42.506;24.192;2023-04-20T01:58:33;18.55;;;13.25;;
61960;SDS011;47923;42.506;24.192;2023-04-20T02:01:00;15.88;;;12.48;;
61960;SDS011;47923;42.506;24.192;2023-04-20T02:03:26;17.40;;;13.20;;
61960;SDS011;47923;42.506;24.192;2023-04-20T02:05:52;17.60;;;12.43;;
61960;SDS011;47923;42.506;24.192;2023-04-20T02:08:17;15.73;;;12.15;;
61960;SDS011;47923;42.506;24.192;2023-04-20T02:10:43;14.95;;;10.43;;
61960;SDS011;47923;42.506;24.192;2023-04-20T02:13:08;14.57;;;10.27;;
61960;SDS011;47923;42.506;24.192;2023-04-20T02:15:34;16.05;;;10.75;;
61960;SDS011;47923;42.506;24.192;2023-04-20T02:18:00;12.25;;;8.55;;
61960;SDS011;47923;42.506;24.192;2023-04-20T02:20:25;12.48;;;8.75;;
61960;SDS011;47923;42.506;24.192;2023-04-20T02:22:51;13.15;;;8.57;;
61960;SDS011;47923;42.506;24.192;2023-04-20T02:25:16;15.98;;;9.18;;
61960;SDS011;47923;42.506;24.192;2023-04-20T02:27:42;12.63;;;8.18;;
61960;SDS011;47923;42.506;24.192;2023-04-20T02:30:07;12.85;;;8.60;;
61960;SDS011;47923;42.506;24.192;2023-04-20T02:32:34;12.95;;;7.97;;
61960;SDS011;47923;42.506;24.192;2023-04-20T02:35:00;13.75;;;8.43;;
61960;SDS011;47923;42.506;24.192;2023-04-20T02:37:27;13.00;;;8.38;;
61960;SDS011;47923;42.506;24.192;2023-04-20T02:39:53;12.82;;;8.50;;
61960;SDS011;47923;42.506;24.192;2023-04-20T02:42:18;13.75;;;9.40;;
61960;SDS011;47923;42.506;24.192;2023-04-20T02:44:44;13.32;;;9.48;;
61960;SDS011;47923;42.506;24.192;2023-04-20T02:47:10;11.85;;;9.20;;
61960;SDS011;47923;42.506;24.192;2023-04-20T02:49:35;14.55;;;8.73;;
61960;SDS011;47923;42.506;24.192;2023-04-20T02:52:01;14.95;;;9.65;;
61960;SDS011;47923;42.506;24.192;2023-04-20T02:54:26;14.52;;;9.52;;
61960;SDS011;47923;42.506;24.192;2023-04-20T02:56:51;16.63;;;9.85;;
61960;SDS011;47923;42.506;24.192;2023-04-20T02:59:17;15.13;;;9.38;;
61960;SDS011;47923;42.506;24.192;2023-04-20T03:01:42;12.65;;;8.35;;
61960;SDS011;47923;42.506;24.192;2023-04-20T03:04:08;16.38;;;9.68;;
61960;SDS011;47923;42.506;24.192;2023-04-20T03:06:33;12.07;;;7.75;;
61960;SDS011;47923;42.506;24.192;2023-04-20T03:09:00;13.63;;;8.98;;
61960;SDS011;47923;42.506;24.192;2023-04-20T03:11:26;11.15;;;8.27;;
61960;SDS011;47923;42.506;24.192;2023-04-20T03:13:51;14.90;;;9.35;;
61960;SDS011;47923;42.506;24.192;2023-04-20T03:16:17;11.85;;;8.65;;
61960;SDS011;47923;42.506;24.192;2023-04-20T03:18:42;14.15;;;9.05;;
61960;SDS011;47923;42.506;24.192;2023-04-20T03:21:08;16.83;;;9.90;;
61960;SDS011;47923;42.506;24.192;2023-04-20T03:23:33;13.57;;;9.40;;
61960;SDS011;47923;42.506;24.192;2023-04-20T03:25:59;21.45;;;12.18;;
61960;SDS011;47923;42.506;24.192;2023-04-20T03:28:25;14.20;;;9.52;;
61960;SDS011;47923;42.506;24.192;2023-04-20T03:30:51;18.95;;;12.75;;
61960;SDS011;47923;42.506;24.192;2023-04-20T03:33:16;16.65;;;12.35;;
61960;SDS011;47923;42.506;24.192;2023-04-20T03:35:41;15.18;;;10.65;;
61960;SDS011;47923;42.506;24.192;2023-04-20T03:38:07;15.85;;;8.73;;
61960;SDS011;47923;42.506;24.192;2023-04-20T03:40:33;14.02;;;9.02;;
61960;SDS011;47923;42.506;24.192;2023-04-20T03:42:58;14.55;;;9.07;;
61960;SDS011;47923;42.506;24.192;2023-04-20T03:45:24;13.98;;;9.15;;
61960;SDS011;47923;42.506;24.192;2023-04-20T03:47:49;16.55;;;9.93;;
61960;SDS011;47923;42.506;24.192;2023-04-20T03:50:15;15.13;;;9.73;;
61960;SDS011;47923;42.506;24.192;2023-04-20T03:52:40;16.50;;;10.43;;
61960;SDS011;47923;42.506;24.192;2023-04-20T03:55:06;12.68;;;9.02;;
61960;SDS011;47923;42.506;24.192;2023-04-20T03:57:32;13.55;;;8.20;;
61960;SDS011;47923;42.506;24.192;2023-04-20T03:59:57;13.82;;;9.07;;
61960;SDS011;47923;42.506;24.192;2023-04-20T04:02:23;16.10;;;9.18;;
61960;SDS011;47923;42.506;24.192;2023-04-20T04:04:49;12.02;;;8.65;;
61960;SDS011;47923;42.506;24.192;2023-04-20T04:07:14;13.57;;;8.65;;
61960;SDS011;47923;42.506;24.192;2023-04-20T04:09:40;15.23;;;9.00;;
61960;SDS011;47923;42.506;24.192;2023-04-20T04:12:05;12.18;;;8.80;;
61960;SDS011;47923;42.506;24.192;2023-04-20T04:14:31;14.65;;;8.55;;
61960;SDS011;47923;42.506;24.192;2023-04-20T04:16:57;15.50;;;9.23;;
61960;SDS011;47923;42.506;24.192;2023-04-20T04:19:23;15.18;;;9.55;;
61960;SDS011;47923;42.506;24.192;2023-04-20T04:21:48;16.70;;;10.13;;
61960;SDS011;47923;42.506;24.192;2023-04-20T04:24:14;18.42;;;9.10;;
61960;SDS011;47923;42.506;24.192;2023-04-20T04:26:39;36.20;;;11.60;;
61960;SDS011;47923;42.506;24.192;2023-04-20T04:29:05;22.15;;;10.85;;
61960;SDS011;47923;42.506;24.192;2023-04-20T04:31:30;16.33;;;8.90;;
61960;SDS011;47923;42.506;24.192;2023-04-20T04:33:56;15.43;;;9.20;;
61960;SDS011;47923;42.506;24.192;2023-04-20T04:36:22;17.80;;;11.68;;
61960;SDS011;47923;42.506;24.192;2023-04-20T04:38:48;17.83;;;10.07;;
61960;SDS011;47923;42.506;24.192;2023-04-20T04:41:14;15.43;;;9.55;;
61960;SDS011;47923;42.506;24.192;2023-04-20T04:43:40;16.08;;;10.27;;
61960;SDS011;47923;42.506;24.192;2023-04-20T04:46:09;16.00;;;10.48;;
61960;SDS011;47923;42.506;24.192;2023-04-20T04:48:36;19.52;;;10.00;;
61960;SDS011;47923;42.506;24.192;2023-04-20T04:51:02;13.25;;;9.40;;
61960;SDS011;47923;42.506;24.192;2023-04-20T04:53:28;18.23;;;10.20;;
61960;SDS011;47923;42.506;24.192;2023-04-20T04:55:53;16.77;;;10.07;;
61960;SDS011;47923;42.506;24.192;2023-04-20T04:58:19;18.88;;;11.27;;
61960;SDS011;47923;42.506;24.192;2023-04-20T05:00:45;18.73;;;11.70;;
61960;SDS011;47923;42.506;24.192;2023-04-20T05:03:10;18.80;;;12.38;;
61960;SDS011;47923;42.506;24.192;2023-04-20T05:05:36;14.25;;;10.35;;
61960;SDS011;47923;42.506;24.192;2023-04-20T05:08:01;16.88;;;10.18;;
61960;SDS011;47923;42.506;24.192;2023-04-20T05:10:26;18.35;;;10.75;;
61960;SDS011;47923;42.506;24.192;2023-04-20T05:12:52;15.05;;;10.10;;
61960;SDS011;47923;42.506;24.192;2023-04-20T05:15:17;16.13;;;10.27;;
61960;SDS011;47923;42.506;24.192;2023-04-20T05:17:43;22.27;;;14.23;;
61960;SDS011;47923;42.506;24.192;2023-04-20T05:20:08;16.70;;;10.25;;
61960;SDS011;47923;42.506;24.192;2023-04-20T05:22:35;14.52;;;10.00;;
61960;SDS011;47923;42.506;24.192;2023-04-20T05:25:01;14.20;;;9.18;;
61960;SDS011;47923;42.506;24.192;2023-04-20T05:27:26;15.43;;;9.65;;
61960;SDS011;47923;42.506;24.192;2023-04-20T05:29:51;15.55;;;9.48;;
61960;SDS011;47923;42.506;24.192;2023-04-20T05:32:17;19.25;;;10.80;;
61960;SDS011;47923;42.506;24.192;2023-04-20T05:34:42;15.75;;;10.65;;
61960;SDS011;47923;42.506;24.192;2023-04-20T05:37:08;18.60;;;13.02;;
61960;SDS011;47923;42.506;24.192;2023-04-20T05:39:34;19.00;;;12.27;;
61960;SDS011;47923;42.506;24.192;2023-04-20T05:41:59;17.90;;;10.98;;
61960;SDS011;47923;42.506;24.192;2023-04-20T05:44:25;20.00;;;12.60;;
61960;SDS011;47923;42.506;24.192;2023-04-20T05:46:51;18.15;;;10.93;;
61960;SDS011;47923;42.506;24.192;2023-04-20T05:49:16;17.08;;;11.55;;
61960;SDS011;47923;42.506;24.192;2023-04-20T05:51:42;17.00;;;10.90;;
61960;SDS011;47923;42.506;24.192;2023-04-20T05:54:07;18.42;;;11.55;;
61960;SDS011;47923;42.506;24.192;2023-04-20T05:56:34;16.88;;;10.10;;
61960;SDS011;47923;42.506;24.192;2023-04-20T05:58:59;12.88;;;8.90;;
61960;SDS011;47923;42.506;24.192;2023-04-20T06:01:25;15.57;;;9.20;;
61960;SDS011;47923;42.506;24.192;2023-04-20T06:03:51;16.08;;;9.48;;
61960;SDS011;47923;42.506;24.192;2023-04-20T06:06:16;18.63;;;10.75;;
61960;SDS011;47923;42.506;24.192;2023-04-20T06:08:42;14.68;;;8.10;;
61960;SDS011;47923;42.506;24.192;2023-04-20T06:11:07;14.88;;;8.50;;
61960;SDS011;47923;42.506;24.192;2023-04-20T06:13:33;11.88;;;7.78;;
61960;SDS011;47923;42.506;24.192;2023-04-20T06:15:58;16.67;;;8.25;;
61960;SDS011;47923;42.506;24.192;2023-04-20T06:18:23;13.48;;;8.68;;
61960;SDS011;47923;42.506;24.192;2023-04-20T06:20:49;11.05;;;7.47;;
61960;SDS011;47923;42.506;24.192;2023-04-20T06:23:15;13.90;;;8.20;;
61960;SDS011;47923;42.506;24.192;2023-04-20T06:25:40;13.07;;;8.50;;
61960;SDS011;47923;42.506;24.192;2023-04-20T06:28:06;15.13;;;8.73;;
61960;SDS011;47923;42.506;24.192;2023-04-20T06:30:32;11.32;;;7.95;;
61960;SDS011;47923;42.506;24.192;2023-04-20T06:32:58;12.65;;;7.55;;
61960;SDS011;47923;42.506;24.192;2023-04-20T06:35:24;12.02;;;7.63;;
61960;SDS011;47923;42.506;24.192;2023-04-20T06:37:50;9.27;;;6.65;;
61960;SDS011;47923;42.506;24.192;2023-04-20T06:40:16;8.30;;;6.13;;
61960;SDS011;47923;42.506;24.192;2023-04-20T06:42:42;12.05;;;7.63;;
61960;SDS011;47923;42.506;24.192;2023-04-20T06:45:08;9.93;;;6.25;;
61960;SDS011;47923;42.506;24.192;2023-04-20T06:47:34;9.63;;;6.63;;
61960;SDS011;47923;42.506;24.192;2023-04-20T06:50:01;10.70;;;5.63;;
61960;SDS011;47923;42.506;24.192;2023-04-20T06:52:29;8.70;;;6.30;;
61960;SDS011;47923;42.506;24.192;2023-04-20T06:54:56;13.40;;;7.20;;
61960;SDS011;47923;42.506;24.192;2023-04-20T06:57:22;8.95;;;6.00;;
61960;SDS011;47923;42.506;24.192;2023-04-20T06:59:47;12.40;;;6.93;;
61960;SDS011;47923;42.506;24.192;2023-04-20T07:02:13;7.53;;;5.43;;
61960;SDS011;47923;42.506;24.192;2023-04-20T07:04:39;8.57;;;5.95;;
61960;SDS011;47923;42.506;24.192;2023-04-20T07:07:04;9.40;;;5.97;;
61960;SDS011;47923;42.506;24.192;2023-04-20T07:09:30;9.63;;;5.93;;
61960;SDS011;47923;42.506;24.192;2023-04-20T07:11:55;10.48;;;6.47;;
61960;SDS011;47923;42.506;24.192;2023-04-20T07:14:21;9.18;;;6.57;;
61960;SDS011;47923;42.506;24.192;2023-04-20T07:16:47;9.55;;;6.43;;
61960;SDS011;47923;42.506;24.192;2023-04-20T07:19:16;8.57;;;6.03;;
61960;SDS011;47923;42.506;24.192;2023-04-20T07:21:42;9.13;;;5.60;;
61960;SDS011;47923;42.506;24.192;2023-04-20T07:24:07;9.13;;;5.93;;
61960;SDS011;47923;42.506;24.192;2023-04-20T07:26:33;9.88;;;5.93;;
61960;SDS011;47923;42.506;24.192;2023-04-20T07:28:58;9.65;;;5.93;;
61960;SDS011;47923;42.506;24.192;2023-04-20T07:31:24;8.38;;;5.50;;
61960;SDS011;47923;42.506;24.192;2023-04-20T07:33:49;9.75;;;5.60;;
61960;SDS011;47923;42.506;24.192;2023-04-20T07:36:14;8.50;;;4.82;;
61960;SDS011;47923;42.506;24.192;2023-04-20T07:38:40;9.13;;;6.32;;
61960;SDS011;47923;42.506;24.192;2023-04-20T07:41:09;7.88;;;5.43;;
61960;SDS011;47923;42.506;24.192;2023-04-20T07:43:35;8.55;;;5.22;;
61960;SDS011;47923;42.506;24.192;2023-04-20T07:46:01;9.55;;;6.15;;
61960;SDS011;47923;42.506;24.192;2023-04-20T07:48:26;14.07;;;7.07;;
61960;SDS011;47923;42.506;24.192;2023-04-20T07:50:52;10.88;;;6.43;;
61960;SDS011;47923;42.506;24.192;2023-04-20T07:53:17;13.50;;;7.97;;
61960;SDS011;47923;42.506;24.192;2023-04-20T07:55:43;9.43;;;5.90;;
61960;SDS011;47923;42.506;24.192;2023-04-20T07:58:08;10.25;;;6.50;;
61960;SDS011;47923;42.506;24.192;2023-04-20T08:00:34;12.65;;;6.03;;
61960;SDS011;47923;42.506;24.192;2023-04-20T08:03:00;10.95;;;5.93;;
61960;SDS011;47923;42.506;24.192;2023-04-20T08:05:25;8.57;;;5.10;;
61960;SDS011;47923;42.506;24.192;2023-04-20T08:07:51;12.70;;;7.25;;
61960;SDS011;47923;42.506;24.192;2023-04-20T08:10:16;9.23;;;5.70;;
61960;SDS011;47923;42.506;24.192;2023-04-20T08:12:42;12.10;;;6.53;;
61960;SDS011;47923;42.506;24.192;2023-04-20T08:15:08;8.70;;;5.90;;
61960;SDS011;47923;42.506;24.192;2023-04-20T08:17:34;10.70;;;6.07;;
61960;SDS011;47923;42.506;24.192;2023-04-20T08:20:00;9.18;;;5.88;;
61960;SDS011;47923;42.506;24.192;2023-04-20T08:22:25;9.75;;;5.57;;
61960;SDS011;47923;42.506;24.192;2023-04-20T08:24:56;11.15;;;6.53;;
61960;SDS011;47923;42.506;24.192;2023-04-20T08:27:24;8.27;;;5.57;;
61960;SDS011;47923;42.506;24.192;2023-04-20T08:29:50;10.35;;;7.20;;
61960;SDS011;47923;42.506;24.192;2023-04-20T08:32:16;10.43;;;6.03;;
61960;SDS011;47923;42.506;24.192;2023-04-20T08:34:43;10.70;;;5.50;;
61960;SDS011;47923;42.506;24.192;2023-04-20T08:37:08;8.98;;;4.78;;
61960;SDS011;47923;42.506;24.192;2023-04-20T08:39:34;9.05;;;5.30;;
61960;SDS011;47923;42.506;24.192;2023-04-20T08:42:00;12.15;;;7.28;;
61960;SDS011;47923;42.506;24.192;2023-04-20T08:44:26;10.55;;;6.90;;
61960;SDS011;47923;42.506;24.192;2023-04-20T08:46:52;12.88;;;8.45;;
61960;SDS011;47923;42.506;24.192;2023-04-20T08:49:18;10.95;;;7.63;;
61960;SDS011;47923;42.506;24.192;2023-04-20T08:51:45;13.90;;;9.82;;
61960;SDS011;47923;42.506;24.192;2023-04-20T08:54:12;12.10;;;7.78;;
61960;SDS011;47923;42.506;24.192;2023-04-20T08:56:39;12.77;;;8.43;;
61960;SDS011;47923;42.506;24.192;2023-04-20T08:59:06;12.50;;;8.27;;
61960;SDS011;47923;42.506;24.192;2023-04-20T09:01:35;15.80;;;8.43;;
61960;SDS011;47923;42.506;24.192;2023-04-20T09:04:02;11.45;;;8.55;;
61960;SDS011;47923;42.506;24.192;2023-04-20T09:06:42;13.43;;;7.60;;
61960;SDS011;47923;42.506;24.192;2023-04-20T09:09:08;10.93;;;6.55;;
61960;SDS011;47923;42.506;24.192;2023-04-20T09:11:35;10.93;;;6.93;;
61960;SDS011;47923;42.506;24.192;2023-04-20T09:14:04;11.25;;;6.72;;
61960;SDS011;47923;42.506;24.192;2023-04-20T09:16:34;12.30;;;6.25;;
61960;SDS011;47923;42.506;24.192;2023-04-20T09:19:03;9.18;;;6.95;;
61960;SDS011;47923;42.506;24.192;2023-04-20T09:21:29;8.82;;;5.47;;
61960;SDS011;47923;42.506;24.192;2023-04-20T09:26:26;8.85;;;5.00;;
61960;SDS011;47923;42.506;24.192;2023-04-20T09:28:55;9.32;;;4.82;;
61960;SDS011;47923;42.506;24.192;2023-04-20T09:31:21;8.15;;;5.20;;
61960;SDS011;47923;42.506;24.192;2023-04-20T09:36:35;9.20;;;4.85;;
61960;SDS011;47923;42.506;24.192;2023-04-20T09:39:20;7.47;;;4.13;;
61960;SDS011;47923;42.506;24.192;2023-04-20T09:41:48;8.65;;;4.50;;
61960;SDS011;47923;42.506;24.192;2023-04-20T09:44:15;6.28;;;4.45;;
61960;SDS011;47923;42.506;24.192;2023-04-20T09:46:41;8.02;;;4.50;;
61960;SDS011;47923;42.506;24.192;2023-04-20T09:49:08;7.43;;;3.88;;
61960;SDS011;47923;42.506;24.192;2023-04-20T09:51:36;6.55;;;4.38;;
61960;SDS011;47923;42.506;24.192;2023-04-20T09:54:04;7.55;;;5.00;;
61960;SDS011;47923;42.506;24.192;2023-04-20T09:56:31;7.63;;;5.07;;
61960;SDS011;47923;42.506;24.192;2023-04-20T09:58:58;6.43;;;3.90;;
61960;SDS011;47923;42.506;24.192;2023-04-20T10:01:25;8.20;;;4.68;;
61960;SDS011;47923;42.506;24.192;2023-04-20T10:03:51;8.32;;;4.75;;
61960;SDS011;47923;42.506;24.192;2023-04-20T10:06:22;11.38;;;5.00;;
61960;SDS011;47923;42.506;24.192;2023-04-20T10:08:52;7.20;;;4.53;;
61960;SDS011;47923;42.506;24.192;2023-04-20T10:11:26;8.95;;;5.30;;
61960;SDS011;47923;42.506;24.192;2023-04-20T10:13:56;12.90;;;6.10;;
61960;SDS011;47923;42.506;24.192;2023-04-20T10:16:22;11.48;;;5.45;;
61960;SDS011;47923;42.506;24.192;2023-04-20T10:19:22;10.02;;;4.53;;
61960;SDS011;47923;42.506;24.192;2023-04-20T10:21:47;14.32;;;6.32;;
61960;SDS011;47923;42.506;24.192;2023-04-20T10:24:14;10.23;;;4.57;;
61960;SDS011;47923;42.506;24.192;2023-04-20T10:26:41;7.95;;;5.00;;
61960;SDS011;47923;42.506;24.192;2023-04-20T10:29:09;7.43;;;4.10;;
61960;SDS011;47923;42.506;24.192;2023-04-20T10:31:39;6.55;;;3.75;;
61960;SDS011;47923;42.506;24.192;2023-04-20T10:34:06;7.80;;;4.07;;
61960;SDS011;47923;42.506;24.192;2023-04-20T10:36:34;7.55;;;4.43;;
61960;SDS011;47923;42.506;24.192;2023-04-20T10:39:22;7.32;;;4.50;;
61960;SDS011;47923;42.506;24.192;2023-04-20T10:41:50;8.55;;;4.70;;
61960;SDS011;47923;42.506;24.192;2023-04-20T10:44:17;7.43;;;4.50;;
61960;SDS011;47923;42.506;24.192;2023-04-20T10:46:42;9.20;;;4.97;;
61960;SDS011;47923;42.506;24.192;2023-04-20T10:49:12;7.78;;;4.93;;
61960;SDS011;47923;42.506;24.192;2023-04-20T10:51:45;11.05;;;4.40;;
61960;SDS011;47923;42.506;24.192;2023-04-20T10:54:13;8.27;;;4.53;;
61960;SDS011;47923;42.506;24.192;2023-04-20T10:56:43;7.57;;;4.10;;
61960;SDS011;47923;42.506;24.192;2023-04-20T10:59:11;8.25;;;4.05;;
61960;SDS011;47923;42.506;24.192;2023-04-20T11:01:38;7.55;;;4.20;;
61960;SDS011;47923;42.506;24.192;2023-04-20T11:04:03;6.57;;;3.47;;
61960;SDS011;47923;42.506;24.192;2023-04-20T11:06:30;10.05;;;4.55;;
61960;SDS011;47923;42.506;24.192;2023-04-20T11:08:55;9.77;;;4.88;;
61960;SDS011;47923;42.506;24.192;2023-04-20T11:11:25;9.38;;;4.60;;
61960;SDS011;47923;42.506;24.192;2023-04-20T11:14:13;9.32;;;4.68;;
61960;SDS011;47923;42.506;24.192;2023-04-20T11:16:38;8.27;;;4.90;;
61960;SDS011;47923;42.506;24.192;2023-04-20T11:19:04;8.40;;;4.47;;
61960;SDS011;47923;42.506;24.192;2023-04-20T11:24:02;8.63;;;6.63;;
61960;SDS011;47923;42.506;24.192;2023-04-20T11:26:37;8.73;;;5.65;;
61960;SDS011;47923;42.506;24.192;2023-04-20T11:29:04;9.43;;;5.43;;
61960;SDS011;47923;42.506;24.192;2023-04-20T11:31:30;6.95;;;4.68;;
61960;SDS011;47923;42.506;24.192;2023-04-20T11:33:56;13.52;;;5.93;;
61960;SDS011;47923;42.506;24.192;2023-04-20T11:36:22;8.20;;;5.68;;
61960;SDS011;47923;42.506;24.192;2023-04-20T11:38:48;10.00;;;5.28;;
61960;SDS011;47923;42.506;24.192;2023-04-20T11:41:15;9.02;;;5.47;;
61960;SDS011;47923;42.506;24.192;2023-04-20T11:43:41;9.57;;;4.90;;
61960;SDS011;47923;42.506;24.192;2023-04-20T11:46:16;9.23;;;5.35;;
61960;SDS011;47923;42.506;24.192;2023-04-20T11:48:44;10.32;;;5.50;;
61960;SDS011;47923;42.506;24.192;2023-04-20T11:51:10;10.13;;;5.00;;
61960;SDS011;47923;42.506;24.192;2023-04-20T11:53:36;12.93;;;5.47;;
61960;SDS011;47923;42.506;24.192;2023-04-20T11:56:02;8.82;;;5.15;;
61960;SDS011;47923;42.506;24.192;2023-04-20T11:58:28;7.65;;;5.00;;
61960;SDS011;47923;42.506;24.192;2023-04-20T12:00:53;8.70;;;5.20;;
61960;SDS011;47923;42.506;24.192;2023-04-20T12:03:19;9.25;;;5.25;;
61960;SDS011;47923;42.506;24.192;2023-04-20T12:05:44;8.40;;;4.93;;
61960;SDS011;47923;42.506;24.192;2023-04-20T12:08:10;7.05;;;3.97;;
61960;SDS011;47923;42.506;24.192;2023-04-20T12:10:35;10.85;;;5.63;;
61960;SDS011;47923;42.506;24.192;2023-04-20T12:13:01;8.80;;;4.85;;
61960;SDS011;47923;42.506;24.192;2023-04-20T12:15:26;8.65;;;4.72;;
61960;SDS011;47923;42.506;24.192;2023-04-20T12:17:52;7.70;;;4.22;;
61960;SDS011;47923;42.506;24.192;2023-04-20T12:20:18;7.88;;;4.45;;
61960;SDS011;47923;42.506;24.192;2023-04-20T12:22:43;10.15;;;4.20;;
61960;SDS011;47923;42.506;24.192;2023-04-20T12:25:11;8.57;;;3.83;;
61960;SDS011;47923;42.506;24.192;2023-04-20T12:27:36;7.07;;;4.10;;
61960;SDS011;47923;42.506;24.192;2023-04-20T12:30:02;8.25;;;4.25;;
61960;SDS011;47923;42.506;24.192;2023-04-20T12:32:28;9.98;;;4.75;;
61960;SDS011;47923;42.506;24.192;2023-04-20T12:34:53;11.18;;;5.00;;
61960;SDS011;47923;42.506;24.192;2023-04-20T12:37:19;9.45;;;5.28;;
61960;SDS011;47923;42.506;24.192;2023-04-20T12:39:45;7.43;;;4.53;;
61960;SDS011;47923;42.506;24.192;2023-04-20T12:42:11;10.98;;;4.78;;
61960;SDS011;47923;42.506;24.192;2023-04-20T12:44:36;8.82;;;4.68;;
61960;SDS011;47923;42.506;24.192;2023-04-20T12:47:04;11.45;;;5.60;;
61960;SDS011;47923;42.506;24.192;2023-04-20T12:49:29;8.93;;;5.20;;
61960;SDS011;47923;42.506;24.192;2023-04-20T12:51:55;7.40;;;4.82;;
61960;SDS011;47923;42.506;24.192;2023-04-20T12:54:20;9.40;;;5.18;;
61960;SDS011;47923;42.506;24.192;2023-04-20T12:56:46;14.48;;;5.32;;
61960;SDS011;47923;42.506;24.192;2023-04-20T12:59:11;14.60;;;7.05;;
61960;SDS011;47923;42.506;24.192;2023-04-20T13:01:37;20.70;;;9.20;;
61960;SDS011;47923;42.506;24.192;2023-04-20T13:04:05;13.35;;;8.32;;
61960;SDS011;47923;42.506;24.192;2023-04-20T13:06:30;8.95;;;5.25;;
61960;SDS011;47923;42.506;24.192;2023-04-20T13:08:56;10.73;;;6.22;;
61960;SDS011;47923;42.506;24.192;2023-04-20T13:11:22;10.23;;;4.95;;
61960;SDS011;47923;42.506;24.192;2023-04-20T13:13:47;10.32;;;4.63;;
61960;SDS011;47923;42.506;24.192;2023-04-20T13:16:13;7.57;;;5.10;;
61960;SDS011;47923;42.506;24.192;2023-04-20T13:18:38;7.72;;;4.63;;
61960;SDS011;47923;42.506;24.192;2023-04-20T13:21:04;9.32;;;4.45;;
61960;SDS011;47923;42.506;24.192;2023-04-20T13:23:35;9.02;;;4.47;;
61960;SDS011;47923;42.506;24.192;2023-04-20T13:26:05;7.68;;;4.72;;
61960;SDS011;47923;42.506;24.192;2023-04-20T13:28:36;8.43;;;4.68;;
61960;SDS011;47923;42.506;24.192;2023-04-20T13:31:04;9.18;;;3.80;;
61960;SDS011;47923;42.506;24.192;2023-04-20T13:33:31;6.25;;;3.95;;
61960;SDS011;47923;42.506;24.192;2023-04-20T13:35:57;8.10;;;3.92;;
61960;SDS011;47923;42.506;24.192;2023-04-20T13:38:22;8.82;;;4.57;;
61960;SDS011;47923;42.506;24.192;2023-04-20T13:40:48;8.95;;;4.18;;
61960;SDS011;47923;42.506;24.192;2023-04-20T13:43:13;8.07;;;3.88;;
61960;SDS011;47923;42.506;24.192;2023-04-20T13:45:39;7.43;;;3.72;;
61960;SDS011;47923;42.506;24.192;2023-04-20T13:48:04;9.68;;;5.22;;
61960;SDS011;47923;42.506;24.192;2023-04-20T13:50:30;10.82;;;4.55;;
61960;SDS011;47923;42.506;24.192;2023-04-20T13:52:55;7.25;;;3.97;;
61960;SDS011;47923;42.506;24.192;2023-04-20T13:55:26;8.68;;;4.55;;
61960;SDS011;47923;42.506;24.192;2023-04-20T13:57:58;9.25;;;4.82;;
61960;SDS011;47923;42.506;24.192;2023-04-20T14:00:32;7.10;;;4.78;;
61960;SDS011;47923;42.506;24.192;2023-04-20T14:03:09;12.60;;;5.68;;
61960;SDS011;47923;42.506;24.192;2023-04-20T14:05:35;9.02;;;4.30;;
61960;SDS011;47923;42.506;24.192;2023-04-20T14:08:03;14.00;;;5.50;;
61960;SDS011;47923;42.506;24.192;2023-04-20T14:10:37;12.57;;;4.72;;
61960;SDS011;47923;42.506;24.192;2023-04-20T14:13:06;17.10;;;5.25;;
61960;SDS011;47923;42.506;24.192;2023-04-20T14:15:32;7.97;;;4.20;;
61960;SDS011;47923;42.506;24.192;2023-04-20T14:17:58;8.60;;;4.97;;
61960;SDS011;47923;42.506;24.192;2023-04-20T14:20:24;13.55;;;5.10;;
61960;SDS011;47923;42.506;24.192;2023-04-20T14:22:52;7.18;;;3.80;;
61960;SDS011;47923;42.506;24.192;2023-04-20T14:25:18;10.50;;;4.22;;
61960;SDS011;47923;42.506;24.192;2023-04-20T14:27:43;8.48;;;3.90;;